createdAt,value
2023-03-16T00:00:19.503Z,99.5
2023-03-16T00:05:25.617Z,99.5
2023-03-16T00:10:31.727Z,99.5
2023-03-16T00:15:37.841Z,99.5
2023-03-16T00:20:43.960Z,99.5
2023-03-16T00:25:50.131Z,99.5
2023-03-16T00:30:56.230Z,99.5
2023-03-16T00:36:02.332Z,99.5
2023-03-16T00:41:08.453Z,99.5
2023-03-16T00:46:14.553Z,99.5
2023-03-16T00:51:20.680Z,99.5
2023-03-16T00:56:25.839Z,99.5
2023-03-16T01:01:31.929Z,99.5
2023-03-16T01:06:38.032Z,99.5
2023-03-16T01:11:44.162Z,99.5
2023-03-16T01:16:50.293Z,99.5
2023-03-16T01:21:56.388Z,99.5
2023-03-16T01:27:02.506Z,99.5
2023-03-16T01:32:08.682Z,99.5
2023-03-16T01:37:14.746Z,99.5
2023-03-16T01:42:20.852Z,99.5
2023-03-16T01:47:26.960Z,99.5
2023-03-16T01:52:33.090Z,99.5
2023-03-16T01:57:39.214Z,99.5
2023-03-16T02:02:44.330Z,99.5
2023-03-16T02:07:50.450Z,99
2023-03-16T02:12:56.570Z,99
2023-03-16T02:18:02.665Z,99.5
2023-03-16T02:23:08.811Z,99.5
2023-03-16T02:28:14.927Z,99.5
2023-03-16T02:33:21.075Z,99.5
2023-03-16T02:38:27.156Z,99.5
2023-03-16T02:43:33.274Z,99.5
2023-03-16T02:48:39.371Z,99.5
2023-03-16T02:53:45.504Z,99.5
2023-03-16T02:58:51.619Z,99.5
2023-03-16T03:03:57.714Z,99
2023-03-16T03:09:02.842Z,97.5
2023-03-16T03:14:08.947Z,98
2023-03-16T03:19:15.071Z,98.5
2023-03-16T03:24:21.178Z,96.5
2023-03-16T03:29:27.314Z,97
2023-03-16T03:34:33.483Z,96.5
2023-03-16T03:39:39.567Z,95.5
2023-03-16T03:44:45.693Z,96
2023-03-16T03:49:51.806Z,97
2023-03-16T03:54:57.919Z,98.5
2023-03-16T04:00:04.039Z,99
2023-03-16T04:05:10.151Z,99.5
2023-03-16T04:10:16.252Z,99.5
2023-03-16T04:15:21.394Z,99.5
2023-03-16T04:20:27.509Z,99.5
2023-03-16T04:25:33.668Z,99.5
2023-03-16T04:30:39.737Z,98.5
2023-03-16T04:35:45.882Z,98
2023-03-16T04:40:51.984Z,98.5
2023-03-16T04:45:58.071Z,98.5
2023-03-16T04:51:04.201Z,99.5
2023-03-16T04:56:10.330Z,99.5
2023-03-16T05:01:16.433Z,97.5
2023-03-16T05:06:22.563Z,98
2023-03-16T05:11:28.648Z,97.5
2023-03-16T05:16:34.765Z,98
2023-03-16T05:21:39.905Z,97.5
2023-03-16T05:26:46.026Z,98
2023-03-16T05:31:52.143Z,98
2023-03-16T05:36:58.248Z,96
2023-03-16T05:42:04.379Z,96.5
2023-03-16T05:47:10.500Z,97
2023-03-16T05:52:16.599Z,95.5
2023-03-16T05:57:22.707Z,84
2023-03-16T06:02:28.827Z,78
2023-03-16T06:07:34.942Z,74
2023-03-16T06:12:41.078Z,73
2023-03-16T06:17:47.179Z,70.5
2023-03-16T06:22:53.284Z,68.5
2023-03-16T06:27:58.442Z,65.5
2023-03-16T06:33:04.544Z,68.5
2023-03-16T06:38:10.641Z,73.5
2023-03-16T06:43:16.781Z,74
2023-03-16T06:48:22.897Z,72
2023-03-16T06:53:29.006Z,67.5
2023-03-16T06:58:35.145Z,65
2023-03-16T07:03:41.301Z,62
2023-03-16T07:08:47.347Z,59
2023-03-16T07:13:53.487Z,61
2023-03-16T07:18:59.637Z,65.5
2023-03-16T07:24:05.710Z,60.5
2023-03-16T07:29:11.806Z,61.5
2023-03-16T07:34:16.941Z,58
2023-03-16T07:39:23.054Z,57
2023-03-16T07:44:29.365Z,56
2023-03-16T07:49:35.298Z,54
2023-03-16T07:54:41.410Z,52
2023-03-16T07:59:47.517Z,52.5
2023-03-16T08:04:53.699Z,53.5
2023-03-16T08:09:59.767Z,51.5
2023-03-16T08:15:06.086Z,53.5
2023-03-16T08:20:12.029Z,52.5
2023-03-16T08:25:18.106Z,50
2023-03-16T08:30:24.304Z,55
2023-03-16T08:35:30.391Z,49.5
2023-03-16T08:40:35.624Z,49.5
2023-03-16T08:45:41.723Z,51
2023-03-16T08:50:47.715Z,53
2023-03-16T08:55:53.949Z,50
2023-03-16T09:00:59.952Z,53
2023-03-16T09:06:06.081Z,51
2023-03-16T09:11:11.217Z,52
2023-03-16T09:16:17.329Z,51.5
2023-03-16T09:21:23.522Z,52
2023-03-16T09:26:29.690Z,51.5
2023-03-16T09:31:35.665Z,55
2023-03-16T09:36:41.938Z,52.5
2023-03-16T09:41:48.036Z,52.5
2023-03-16T09:46:54.135Z,55.5
2023-03-16T09:52:00.275Z,52
2023-03-16T09:57:06.272Z,51.5
2023-03-16T10:02:12.533Z,49
2023-03-16T10:07:18.682Z,51
2023-03-16T10:12:24.726Z,52
2023-03-16T10:17:29.891Z,48.5
2023-03-16T10:22:36.008Z,49
2023-03-16T10:27:42.008Z,49.5
2023-03-16T10:32:48.161Z,46
2023-03-16T10:37:54.288Z,48
2023-03-16T10:43:00.422Z,49
2023-03-16T10:48:06.366Z,44
2023-03-16T10:53:12.646Z,45.5
2023-03-16T10:58:18.725Z,48
2023-03-16T11:03:24.889Z,42.5
2023-03-16T11:08:30.899Z,42
2023-03-16T11:13:37.104Z,42
2023-03-16T11:18:43.229Z,42
2023-03-16T11:23:48.369Z,44.5
2023-03-16T11:28:54.418Z,43
2023-03-16T11:34:00.531Z,44
2023-03-16T11:39:06.683Z,43
2023-03-16T11:44:12.849Z,39.5
2023-03-16T11:49:18.921Z,40
2023-03-16T11:54:25.005Z,38
2023-03-16T11:59:31.172Z,39.5
2023-03-16T12:04:37.077Z,41.5
2023-03-16T12:09:43.361Z,39.5
2023-03-16T12:14:49.497Z,38
2023-03-16T12:19:55.431Z,39
2023-03-16T12:25:01.669Z,40.5
2023-03-16T12:30:06.781Z,39
2023-03-16T12:35:12.895Z,42.5
2023-03-16T12:40:18.961Z,41.5
2023-03-16T12:45:25.024Z,44
2023-03-16T12:50:31.144Z,41
2023-03-16T12:55:37.381Z,40.5
2023-03-16T13:00:43.357Z,37.5
2023-03-16T13:05:50.679Z,38.5
2023-03-16T13:10:55.626Z,37.5
2023-03-16T13:16:01.722Z,40
2023-03-16T13:21:07.839Z,38
2023-03-16T13:26:13.908Z,38
2023-03-16T13:31:20.012Z,41.5
2023-03-16T13:36:25.143Z,38.5
2023-03-16T13:41:31.241Z,40.5
2023-03-16T13:46:37.356Z,39
2023-03-16T13:51:43.453Z,39.5
2023-03-16T13:56:49.573Z,39
2023-03-16T14:01:55.710Z,38
2023-03-16T14:07:01.807Z,38.5
2023-03-16T14:12:07.918Z,40.5
2023-03-16T14:17:14.033Z,40.5
2023-03-16T14:22:20.126Z,39.5
2023-03-16T14:27:26.237Z,39
2023-03-16T14:32:32.347Z,40.5
2023-03-16T14:37:38.533Z,37
2023-03-16T14:42:43.600Z,35.5
2023-03-16T14:47:49.705Z,39
2023-03-16T14:52:55.827Z,41.5
2023-03-16T14:58:01.927Z,41
2023-03-16T15:03:08.028Z,39
2023-03-16T15:08:14.187Z,36.5
2023-03-16T15:13:20.285Z,40
2023-03-16T15:18:26.430Z,39.5
2023-03-16T15:23:32.560Z,39
2023-03-16T15:28:38.734Z,39.5
2023-03-16T15:33:44.693Z,39.5
2023-03-16T15:38:50.871Z,42
2023-03-16T15:43:56.954Z,41.5
2023-03-16T15:49:02.057Z,42
2023-03-16T15:54:08.276Z,43
2023-03-16T15:59:14.436Z,42.5
2023-03-16T16:04:20.481Z,43.5
2023-03-16T16:09:26.551Z,43
2023-03-16T16:14:32.714Z,44.5
2023-03-16T16:19:38.870Z,43
2023-03-16T16:24:44.827Z,44
2023-03-16T16:29:51.004Z,45.5
2023-03-16T16:34:57.069Z,46
2023-03-16T16:40:03.340Z,47
2023-03-16T16:45:09.257Z,49.5
2023-03-16T16:50:15.537Z,49.5
2023-03-16T16:55:20.506Z,50.5
2023-03-16T17:00:26.628Z,52
2023-03-16T17:05:32.834Z,52
2023-03-16T17:10:38.872Z,52.5
2023-03-16T17:15:44.975Z,52.5
2023-03-16T17:20:51.096Z,53
2023-03-16T17:25:57.177Z,52
2023-03-16T17:31:03.283Z,52
2023-03-16T17:36:09.515Z,53
2023-03-16T17:41:15.517Z,51.5
2023-03-16T17:46:21.672Z,51.5
2023-03-16T17:51:27.776Z,52
2023-03-16T17:56:33.892Z,52
2023-03-16T18:01:39.025Z,52
2023-03-16T18:06:45.122Z,53
2023-03-16T18:11:51.356Z,52
2023-03-16T18:16:57.419Z,53.5
2023-03-16T18:22:03.526Z,52
2023-03-16T18:27:09.664Z,51.5
2023-03-16T18:32:15.719Z,52.5
2023-03-16T18:37:21.999Z,52.5
2023-03-16T18:42:27.972Z,52
2023-03-16T18:47:34.191Z,52
2023-03-16T18:52:40.226Z,52
2023-03-16T18:57:46.392Z,52.5
2023-03-16T19:02:52.449Z,52.5
2023-03-16T19:07:57.612Z,54
2023-03-16T19:13:03.783Z,53
2023-03-16T19:18:09.822Z,53.5
2023-03-16T19:23:15.934Z,55
2023-03-16T19:28:22.055Z,55
2023-03-16T19:33:28.160Z,56.5
2023-03-16T19:38:34.295Z,55.5
2023-03-16T19:43:40.444Z,55
2023-03-16T19:48:46.574Z,55.5
2023-03-16T19:53:52.681Z,56
2023-03-16T19:58:58.777Z,56
2023-03-16T20:04:04.888Z,55.5
2023-03-16T20:09:11.005Z,56
2023-03-16T20:14:16.140Z,56.5
2023-03-16T20:19:22.371Z,57
2023-03-16T20:24:28.393Z,56.5
2023-03-16T20:29:34.511Z,57.5
2023-03-16T20:34:40.596Z,59
2023-03-16T20:39:46.723Z,58.5
2023-03-16T20:44:52.836Z,59.5
2023-03-16T20:49:58.992Z,60
2023-03-16T20:55:05.086Z,61
2023-03-16T21:00:11.208Z,62
2023-03-16T21:05:17.358Z,62.5
2023-03-16T21:10:23.501Z,64
2023-03-16T21:15:29.726Z,64.5
2023-03-16T21:20:34.754Z,65
2023-03-16T21:25:40.872Z,65
2023-03-16T21:30:47.070Z,65.5
2023-03-16T21:35:53.187Z,66
2023-03-16T21:40:59.234Z,66
2023-03-16T21:46:05.349Z,66
2023-03-16T21:51:11.470Z,66.5
2023-03-16T21:56:17.590Z,66.5
2023-03-16T22:01:23.707Z,67
2023-03-16T22:06:29.851Z,67
2023-03-16T22:11:35.945Z,67
2023-03-16T22:16:42.138Z,66.5
2023-03-16T22:21:48.248Z,67
2023-03-16T22:26:53.373Z,67.5
2023-03-16T22:31:59.438Z,67.5
2023-03-16T22:37:05.570Z,67
2023-03-16T22:42:11.687Z,66.5
2023-03-16T22:47:17.797Z,66
2023-03-16T22:52:23.909Z,66.5
2023-03-16T22:57:30.192Z,66
2023-03-16T23:02:36.164Z,66.5
2023-03-16T23:07:42.276Z,67
2023-03-16T23:12:48.396Z,66.5
2023-03-16T23:17:54.532Z,67
2023-03-16T23:23:00.626Z,67.5
2023-03-16T23:28:06.776Z,67.5
2023-03-16T23:33:11.963Z,66.5
2023-03-16T23:38:18.018Z,67
2023-03-16T23:43:24.136Z,67
2023-03-16T23:48:30.238Z,67
2023-03-16T23:53:36.460Z,67
2023-03-16T23:58:42.474Z,66
